Etusivu
METAR-TAF:

METAR-TAF

Lentoasemat :

Gabès, Tunisia

Leveyspiiri: 33-53N, Pituuspiiri: 010-06E, korkeus merenpinnasta: 4 m

Tämänhetkinen sää

Tämä raportti tehtiin 56 minuuttia sitten, kello 23.00 UTC
Tuuli 9 kn idästä
Lämpötila 19°C
Kosteus 43%
Ilmanpaine 1017 hPa
Näkyvyys 10 km tai enemmän
Muutamia pilviä 3000 ft:n korkeudessa

METAR: DTTG 152300Z 08009KT 9999 FEW030 19/06 Q1017 NOSIG

Aika: 00:56 (23:56 UTC)

Sääennuste

Tämä raportti tehtiin 2 tuntia ja 56 minuuttia sitten, kello 21.00 UTC
Ennuste voimassa 15. päivästä klo 22 UTC - 16. päivään klo 07 UTC
Tuuli 12 kn idästä
Näkyvyys 10 km tai enemmän
Muutamia pilviä 3000 ft:n korkeudessa
Tulossa
16. päivästä klo 04 UTC - 16. päivään klo 06 UTC
Tuuli 4 kn lännestä

TAF: DTTG 152100Z 1522/1607 09012KT 9999 FEW030 BECMG 1604/1606 26004KT

Säähavainnot ja -ennusteet yli 4000 lentoasemalta (METAR- ja TAF-raportit).

Käytössä olevat sääasemat on merkitty karttaan keltaisilla ja punaisilla pisteillä.

Aseta hiiri pisteen päälle nähdäksesi sääaseman nimen.

Klikkaa sitten nähdäksesi säähavainnot ja -ennusteet.

Kartan vaihtaminen: klikkaa mustalla rastilla varustettuja vihreitä pisteitä, niin voit zoomata sisään; viivalla varustettua vihreää pistettä, niin voit zoomata ulos tai vihreitä nuolia, niin pääset viereisille kartoille.


METAR-TAF: